sensor_id;sensor_type;location;lat;lon;timestamp;temperature;humidity
42199;DHT22;27868;45.184;5.786;2023-03-11T00:00:06;10.80;91.90
42199;DHT22;27868;45.184;5.786;2023-03-11T00:02:58;10.80;92.00
42199;DHT22;27868;45.184;5.786;2023-03-11T00:05:44;10.80;92.10
42199;DHT22;27868;45.184;5.786;2023-03-11T00:08:29;10.80;92.10
42199;DHT22;27868;45.184;5.786;2023-03-11T00:11:13;10.80;92.20
42199;DHT22;27868;45.184;5.786;2023-03-11T00:13:58;10.80;92.30
42199;DHT22;27868;45.184;5.786;2023-03-11T00:16:43;10.70;92.70
42199;DHT22;27868;45.184;5.786;2023-03-11T00:19:28;10.70;92.80
42199;DHT22;27868;45.184;5.786;2023-03-11T00:22:12;10.70;92.60
42199;DHT22;27868;45.184;5.786;2023-03-11T00:24:56;10.70;92.50
42199;DHT22;27868;45.184;5.786;2023-03-11T00:27:41;10.70;92.60
42199;DHT22;27868;45.184;5.786;2023-03-11T00:30:27;10.70;93.00
42199;DHT22;27868;45.184;5.786;2023-03-11T00:33:13;10.70;92.80
42199;DHT22;27868;45.184;5.786;2023-03-11T00:35:59;10.60;92.90
42199;DHT22;27868;45.184;5.786;2023-03-11T00:38:43;10.60;92.80
42199;DHT22;27868;45.184;5.786;2023-03-11T00:41:28;10.60;92.90
42199;DHT22;27868;45.184;5.786;2023-03-11T00:44:12;10.60;92.80
42199;DHT22;27868;45.184;5.786;2023-03-11T00:46:57;10.60;92.80
42199;DHT22;27868;45.184;5.786;2023-03-11T00:49:42;10.60;93.00
42199;DHT22;27868;45.184;5.786;2023-03-11T00:52:27;10.60;93.00
42199;DHT22;27868;45.184;5.786;2023-03-11T00:55:17;10.60;93.00
42199;DHT22;27868;45.184;5.786;2023-03-11T00:58:04;10.60;93.00
42199;DHT22;27868;45.184;5.786;2023-03-11T01:00:49;10.60;92.90
42199;DHT22;27868;45.184;5.786;2023-03-11T01:03:35;10.50;93.10
42199;DHT22;27868;45.184;5.786;2023-03-11T01:06:20;10.50;93.10
42199;DHT22;27868;45.184;5.786;2023-03-11T01:09:04;10.60;93.20
42199;DHT22;27868;45.184;5.786;2023-03-11T01:11:49;10.50;93.20
42199;DHT22;27868;45.184;5.786;2023-03-11T01:14:35;10.50;93.30
42199;DHT22;27868;45.184;5.786;2023-03-11T01:17:19;10.50;93.30
42199;DHT22;27868;45.184;5.786;2023-03-11T01:20:05;10.50;93.30
42199;DHT22;27868;45.184;5.786;2023-03-11T01:22:52;10.50;93.40
42199;DHT22;27868;45.184;5.786;2023-03-11T01:25:37;10.50;93.50
42199;DHT22;27868;45.184;5.786;2023-03-11T01:28:21;10.50;93.50
42199;DHT22;27868;45.184;5.786;2023-03-11T01:31:07;10.50;93.50
42199;DHT22;27868;45.184;5.786;2023-03-11T01:33:52;10.50;93.50
42199;DHT22;27868;45.184;5.786;2023-03-11T01:36:37;10.50;93.50
42199;DHT22;27868;45.184;5.786;2023-03-11T01:39:21;10.40;93.50
42199;DHT22;27868;45.184;5.786;2023-03-11T01:42:06;10.50;93.70
42199;DHT22;27868;45.184;5.786;2023-03-11T01:44:50;10.40;93.80
42199;DHT22;27868;45.184;5.786;2023-03-11T01:47:37;10.40;93.90
42199;DHT22;27868;45.184;5.786;2023-03-11T01:50:24;10.40;94.00
42199;DHT22;27868;45.184;5.786;2023-03-11T01:53:12;10.40;93.90
42199;DHT22;27868;45.184;5.786;2023-03-11T01:55:57;10.40;94.00
42199;DHT22;27868;45.184;5.786;2023-03-11T01:58:45;10.40;93.90
42199;DHT22;27868;45.184;5.786;2023-03-11T02:01:33;10.40;93.90
42199;DHT22;27868;45.184;5.786;2023-03-11T02:04:20;10.40;93.80
42199;DHT22;27868;45.184;5.786;2023-03-11T02:07:06;10.40;93.90
42199;DHT22;27868;45.184;5.786;2023-03-11T02:09:51;10.40;93.90
42199;DHT22;27868;45.184;5.786;2023-03-11T02:12:36;10.40;94.00
42199;DHT22;27868;45.184;5.786;2023-03-11T02:15:21;10.40;93.90
42199;DHT22;27868;45.184;5.786;2023-03-11T02:18:08;10.30;94.00
42199;DHT22;27868;45.184;5.786;2023-03-11T02:27:06;10.30;94.40
42199;DHT22;27868;45.184;5.786;2023-03-11T02:29:51;10.20;94.50
42199;DHT22;27868;45.184;5.786;2023-03-11T02:32:37;10.20;94.60
42199;DHT22;27868;45.184;5.786;2023-03-11T02:35:23;10.20;94.90
42199;DHT22;27868;45.184;5.786;2023-03-11T02:38:08;10.20;95.10
42199;DHT22;27868;45.184;5.786;2023-03-11T02:40:58;10.20;95.30
42199;DHT22;27868;45.184;5.786;2023-03-11T02:43:45;10.20;95.40
42199;DHT22;27868;45.184;5.786;2023-03-11T02:46:30;10.20;95.40
42199;DHT22;27868;45.184;5.786;2023-03-11T02:49:17;10.20;95.40
42199;DHT22;27868;45.184;5.786;2023-03-11T02:52:02;10.20;95.40
42199;DHT22;27868;45.184;5.786;2023-03-11T02:54:47;10.20;95.30
42199;DHT22;27868;45.184;5.786;2023-03-11T02:57:31;10.20;95.30
42199;DHT22;27868;45.184;5.786;2023-03-11T03:00:16;10.10;95.20
42199;DHT22;27868;45.184;5.786;2023-03-11T03:03:01;10.20;95.10
42199;DHT22;27868;45.184;5.786;2023-03-11T03:05:46;10.20;95.20
42199;DHT22;27868;45.184;5.786;2023-03-11T03:08:31;10.20;95.30
42199;DHT22;27868;45.184;5.786;2023-03-11T03:11:15;10.20;95.30
42199;DHT22;27868;45.184;5.786;2023-03-11T03:14:00;10.20;95.40
42199;DHT22;27868;45.184;5.786;2023-03-11T03:16:44;10.20;95.50
42199;DHT22;27868;45.184;5.786;2023-03-11T03:19:29;10.20;95.50
42199;DHT22;27868;45.184;5.786;2023-03-11T03:22:13;10.10;95.50
42199;DHT22;27868;45.184;5.786;2023-03-11T03:24:58;10.10;95.50
42199;DHT22;27868;45.184;5.786;2023-03-11T03:27:43;10.10;95.40
42199;DHT22;27868;45.184;5.786;2023-03-11T03:30:28;10.10;95.40
42199;DHT22;27868;45.184;5.786;2023-03-11T03:33:12;10.10;95.50
42199;DHT22;27868;45.184;5.786;2023-03-11T03:35:56;10.10;95.40
42199;DHT22;27868;45.184;5.786;2023-03-11T03:38:41;10.10;95.40
42199;DHT22;27868;45.184;5.786;2023-03-11T03:41:26;10.10;95.40
42199;DHT22;27868;45.184;5.786;2023-03-11T03:44:11;10.10;95.50
42199;DHT22;27868;45.184;5.786;2023-03-11T03:46:55;10.10;95.60
42199;DHT22;27868;45.184;5.786;2023-03-11T03:49:40;10.10;95.50
42199;DHT22;27868;45.184;5.786;2023-03-11T03:52:25;10.10;95.50
42199;DHT22;27868;45.184;5.786;2023-03-11T03:55:09;10.10;95.60
42199;DHT22;27868;45.184;5.786;2023-03-11T03:57:54;10.20;95.60
42199;DHT22;27868;45.184;5.786;2023-03-11T04:00:39;10.10;95.40
42199;DHT22;27868;45.184;5.786;2023-03-11T04:03:25;10.00;95.60
42199;DHT22;27868;45.184;5.786;2023-03-11T04:09:03;10.00;96.10
42199;DHT22;27868;45.184;5.786;2023-03-11T04:11:47;9.90;96.20
42199;DHT22;27868;45.184;5.786;2023-03-11T04:14:32;9.90;96.20
42199;DHT22;27868;45.184;5.786;2023-03-11T04:17:17;10.00;96.30
42199;DHT22;27868;45.184;5.786;2023-03-11T04:20:03;9.90;96.60
42199;DHT22;27868;45.184;5.786;2023-03-11T04:22:50;9.90;96.40
42199;DHT22;27868;45.184;5.786;2023-03-11T04:25:35;9.90;96.60
42199;DHT22;27868;45.184;5.786;2023-03-11T04:28:20;9.90;96.60
42199;DHT22;27868;45.184;5.786;2023-03-11T04:31:04;9.80;96.70
42199;DHT22;27868;45.184;5.786;2023-03-11T04:33:49;9.90;96.70
42199;DHT22;27868;45.184;5.786;2023-03-11T04:36:34;9.90;96.80
42199;DHT22;27868;45.184;5.786;2023-03-11T04:39:18;9.90;96.80
42199;DHT22;27868;45.184;5.786;2023-03-11T04:42:04;9.90;96.70
42199;DHT22;27868;45.184;5.786;2023-03-11T04:44:49;9.90;96.70
42199;DHT22;27868;45.184;5.786;2023-03-11T04:47:34;9.90;96.70
42199;DHT22;27868;45.184;5.786;2023-03-11T04:50:19;9.80;96.80
42199;DHT22;27868;45.184;5.786;2023-03-11T04:53:03;9.80;96.90
42199;DHT22;27868;45.184;5.786;2023-03-11T04:55:48;9.80;96.80
42199;DHT22;27868;45.184;5.786;2023-03-11T04:58:33;9.80;96.80
42199;DHT22;27868;45.184;5.786;2023-03-11T05:01:18;9.90;96.80
42199;DHT22;27868;45.184;5.786;2023-03-11T05:04:03;9.80;96.60
42199;DHT22;27868;45.184;5.786;2023-03-11T05:06:48;9.80;96.80
42199;DHT22;27868;45.184;5.786;2023-03-11T05:09:35;9.80;97.30
42199;DHT22;27868;45.184;5.786;2023-03-11T05:12:20;9.70;96.90
42199;DHT22;27868;45.184;5.786;2023-03-11T05:15:05;9.70;97.00
42199;DHT22;27868;45.184;5.786;2023-03-11T05:17:50;9.70;96.90
42199;DHT22;27868;45.184;5.786;2023-03-11T05:20:35;9.70;97.00
42199;DHT22;27868;45.184;5.786;2023-03-11T05:23:19;9.70;97.00
42199;DHT22;27868;45.184;5.786;2023-03-11T05:26:05;9.70;97.00
42199;DHT22;27868;45.184;5.786;2023-03-11T05:28:49;9.60;97.30
42199;DHT22;27868;45.184;5.786;2023-03-11T05:31:34;9.70;97.10
42199;DHT22;27868;45.184;5.786;2023-03-11T05:34:19;9.70;97.00
42199;DHT22;27868;45.184;5.786;2023-03-11T05:37:04;9.70;97.00
42199;DHT22;27868;45.184;5.786;2023-03-11T05:39:50;9.70;96.90
42199;DHT22;27868;45.184;5.786;2023-03-11T05:42:35;9.70;97.00
42199;DHT22;27868;45.184;5.786;2023-03-11T05:45:20;9.70;96.90
42199;DHT22;27868;45.184;5.786;2023-03-11T05:48:05;9.70;96.90
42199;DHT22;27868;45.184;5.786;2023-03-11T05:50:50;9.70;97.00
42199;DHT22;27868;45.184;5.786;2023-03-11T05:53:35;9.70;97.10
42199;DHT22;27868;45.184;5.786;2023-03-11T05:56:21;9.70;97.10
42199;DHT22;27868;45.184;5.786;2023-03-11T05:59:07;9.70;96.90
42199;DHT22;27868;45.184;5.786;2023-03-11T06:01:52;9.70;96.90
42199;DHT22;27868;45.184;5.786;2023-03-11T06:04:37;9.80;97.00
42199;DHT22;27868;45.184;5.786;2023-03-11T06:07:21;9.80;97.00
42199;DHT22;27868;45.184;5.786;2023-03-11T06:10:06;9.70;97.00
42199;DHT22;27868;45.184;5.786;2023-03-11T06:12:51;9.70;97.00
42199;DHT22;27868;45.184;5.786;2023-03-11T06:15:36;9.70;97.10
42199;DHT22;27868;45.184;5.786;2023-03-11T06:18:21;9.70;97.10
42199;DHT22;27868;45.184;5.786;2023-03-11T06:21:06;9.70;97.10
42199;DHT22;27868;45.184;5.786;2023-03-11T06:23:52;9.70;97.10
42199;DHT22;27868;45.184;5.786;2023-03-11T06:26:37;9.70;97.20
42199;DHT22;27868;45.184;5.786;2023-03-11T06:29:22;9.60;97.30
42199;DHT22;27868;45.184;5.786;2023-03-11T06:32:07;9.70;97.50
42199;DHT22;27868;45.184;5.786;2023-03-11T06:34:52;9.70;97.50
42199;DHT22;27868;45.184;5.786;2023-03-11T06:37:36;9.70;97.20
42199;DHT22;27868;45.184;5.786;2023-03-11T06:40:21;9.70;97.30
42199;DHT22;27868;45.184;5.786;2023-03-11T06:43:05;9.70;97.20
42199;DHT22;27868;45.184;5.786;2023-03-11T06:45:50;9.60;97.20
42199;DHT22;27868;45.184;5.786;2023-03-11T06:48:35;9.60;97.30
42199;DHT22;27868;45.184;5.786;2023-03-11T06:51:19;9.60;97.40
42199;DHT22;27868;45.184;5.786;2023-03-11T06:54:05;9.70;97.40
42199;DHT22;27868;45.184;5.786;2023-03-11T06:56:50;9.60;97.20
42199;DHT22;27868;45.184;5.786;2023-03-11T06:59:35;9.60;97.30
42199;DHT22;27868;45.184;5.786;2023-03-11T07:02:20;9.70;97.40
42199;DHT22;27868;45.184;5.786;2023-03-11T07:05:05;9.60;97.30
42199;DHT22;27868;45.184;5.786;2023-03-11T07:07:53;9.60;97.40
42199;DHT22;27868;45.184;5.786;2023-03-11T07:10:38;9.60;97.20
42199;DHT22;27868;45.184;5.786;2023-03-11T07:13:23;9.60;97.30
42199;DHT22;27868;45.184;5.786;2023-03-11T07:16:13;9.60;97.30
42199;DHT22;27868;45.184;5.786;2023-03-11T07:19:01;9.60;97.50
42199;DHT22;27868;45.184;5.786;2023-03-11T07:21:46;9.70;97.50
42199;DHT22;27868;45.184;5.786;2023-03-11T07:24:31;9.70;97.50
42199;DHT22;27868;45.184;5.786;2023-03-11T07:27:16;9.70;97.40
42199;DHT22;27868;45.184;5.786;2023-03-11T07:30:01;9.70;97.40
42199;DHT22;27868;45.184;5.786;2023-03-11T07:32:46;9.70;97.40
42199;DHT22;27868;45.184;5.786;2023-03-11T07:35:31;9.70;97.40
42199;DHT22;27868;45.184;5.786;2023-03-11T07:38:16;9.70;97.50
42199;DHT22;27868;45.184;5.786;2023-03-11T07:41:02;9.70;97.50
42199;DHT22;27868;45.184;5.786;2023-03-11T07:43:47;9.70;97.40
42199;DHT22;27868;45.184;5.786;2023-03-11T07:46:31;9.70;97.60
42199;DHT22;27868;45.184;5.786;2023-03-11T07:49:16;9.70;97.60
42199;DHT22;27868;45.184;5.786;2023-03-11T07:52:01;9.70;97.70
42199;DHT22;27868;45.184;5.786;2023-03-11T07:54:46;9.70;97.70
42199;DHT22;27868;45.184;5.786;2023-03-11T07:57:30;9.60;97.80
42199;DHT22;27868;45.184;5.786;2023-03-11T08:00:15;9.70;97.70
42199;DHT22;27868;45.184;5.786;2023-03-11T08:03:00;9.70;97.70
42199;DHT22;27868;45.184;5.786;2023-03-11T08:05:45;9.70;97.80
42199;DHT22;27868;45.184;5.786;2023-03-11T08:08:29;9.70;97.70
42199;DHT22;27868;45.184;5.786;2023-03-11T08:11:15;9.70;97.80
42199;DHT22;27868;45.184;5.786;2023-03-11T08:14:00;9.70;97.80
42199;DHT22;27868;45.184;5.786;2023-03-11T08:16:44;9.80;97.80
42199;DHT22;27868;45.184;5.786;2023-03-11T08:19:29;9.80;97.70
42199;DHT22;27868;45.184;5.786;2023-03-11T08:22:14;9.80;97.70
42199;DHT22;27868;45.184;5.786;2023-03-11T08:24:58;9.80;97.70
42199;DHT22;27868;45.184;5.786;2023-03-11T08:27:43;9.80;98.00
42199;DHT22;27868;45.184;5.786;2023-03-11T08:30:27;9.80;97.90
42199;DHT22;27868;45.184;5.786;2023-03-11T08:33:12;9.70;98.10
42199;DHT22;27868;45.184;5.786;2023-03-11T08:35:57;9.90;98.30
42199;DHT22;27868;45.184;5.786;2023-03-11T08:38:41;9.90;97.70
42199;DHT22;27868;45.184;5.786;2023-03-11T08:41:27;9.90;97.80
42199;DHT22;27868;45.184;5.786;2023-03-11T08:44:11;9.90;97.90
42199;DHT22;27868;45.184;5.786;2023-03-11T08:46:56;9.90;98.30
42199;DHT22;27868;45.184;5.786;2023-03-11T08:49:41;9.90;98.00
42199;DHT22;27868;45.184;5.786;2023-03-11T08:52:26;9.90;98.30
42199;DHT22;27868;45.184;5.786;2023-03-11T08:55:15;9.90;98.30
42199;DHT22;27868;45.184;5.786;2023-03-11T08:58:02;9.90;98.40
42199;DHT22;27868;45.184;5.786;2023-03-11T09:00:47;9.90;98.40
42199;DHT22;27868;45.184;5.786;2023-03-11T09:03:33;10.00;98.50
42199;DHT22;27868;45.184;5.786;2023-03-11T09:06:21;10.10;98.30
42199;DHT22;27868;45.184;5.786;2023-03-11T09:09:11;10.10;98.10
42199;DHT22;27868;45.184;5.786;2023-03-11T09:11:56;10.10;98.40
42199;DHT22;27868;45.184;5.786;2023-03-11T09:14:41;10.10;98.20
42199;DHT22;27868;45.184;5.786;2023-03-11T09:17:26;10.20;98.10
42199;DHT22;27868;45.184;5.786;2023-03-11T09:20:12;10.20;98.20
42199;DHT22;27868;45.184;5.786;2023-03-11T09:22:57;10.30;98.20
42199;DHT22;27868;45.184;5.786;2023-03-11T09:25:42;10.40;98.00
42199;DHT22;27868;45.184;5.786;2023-03-11T09:28:27;10.40;98.20
42199;DHT22;27868;45.184;5.786;2023-03-11T09:31:11;10.50;97.60
42199;DHT22;27868;45.184;5.786;2023-03-11T09:33:56;10.50;97.70
42199;DHT22;27868;45.184;5.786;2023-03-11T09:36:41;10.50;97.60
42199;DHT22;27868;45.184;5.786;2023-03-11T09:39:27;10.60;96.80
42199;DHT22;27868;45.184;5.786;2023-03-11T09:42:20;10.50;97.10
42199;DHT22;27868;45.184;5.786;2023-03-11T09:45:32;10.50;97.70
42199;DHT22;27868;45.184;5.786;2023-03-11T09:48:33;10.60;97.60
42199;DHT22;27868;45.184;5.786;2023-03-11T09:51:30;10.60;97.40
42199;DHT22;27868;45.184;5.786;2023-03-11T09:54:16;10.60;97.60
42199;DHT22;27868;45.184;5.786;2023-03-11T09:57:02;10.60;98.00
42199;DHT22;27868;45.184;5.786;2023-03-11T09:59:47;10.70;97.90
42199;DHT22;27868;45.184;5.786;2023-03-11T10:02:35;10.70;97.60
42199;DHT22;27868;45.184;5.786;2023-03-11T10:05:23;10.70;97.80
42199;DHT22;27868;45.184;5.786;2023-03-11T10:11:22;10.90;97.80
42199;DHT22;27868;45.184;5.786;2023-03-11T10:24:11;10.90;98.20
42199;DHT22;27868;45.184;5.786;2023-03-11T10:27:02;11.10;97.50
42199;DHT22;27868;45.184;5.786;2023-03-11T10:30:05;11.10;97.70
42199;DHT22;27868;45.184;5.786;2023-03-11T10:35:45;11.20;97.60
42199;DHT22;27868;45.184;5.786;2023-03-11T10:38:36;11.30;97.70
42199;DHT22;27868;45.184;5.786;2023-03-11T10:41:29;11.30;97.80
42199;DHT22;27868;45.184;5.786;2023-03-11T10:47:16;11.30;98.20
42199;DHT22;27868;45.184;5.786;2023-03-11T10:50:02;11.30;98.20
42199;DHT22;27868;45.184;5.786;2023-03-11T10:53:11;11.30;98.70
42199;DHT22;27868;45.184;5.786;2023-03-11T10:55:58;11.50;98.40
42199;DHT22;27868;45.184;5.786;2023-03-11T10:58:48;11.40;98.50
42199;DHT22;27868;45.184;5.786;2023-03-11T11:01:33;11.50;98.30
42199;DHT22;27868;45.184;5.786;2023-03-11T11:04:26;11.50;98.40
42199;DHT22;27868;45.184;5.786;2023-03-11T11:07:31;11.50;98.50
42199;DHT22;27868;45.184;5.786;2023-03-11T11:10:20;11.60;98.60
42199;DHT22;27868;45.184;5.786;2023-03-11T11:16:15;11.70;98.80
42199;DHT22;27868;45.184;5.786;2023-03-11T11:19:09;11.80;98.70
42199;DHT22;27868;45.184;5.786;2023-03-11T11:21:55;11.90;98.40
42199;DHT22;27868;45.184;5.786;2023-03-11T11:24:48;11.90;98.40
42199;DHT22;27868;45.184;5.786;2023-03-11T11:27:34;12.00;98.60
42199;DHT22;27868;45.184;5.786;2023-03-11T11:30:19;12.00;98.50
42199;DHT22;27868;45.184;5.786;2023-03-11T11:33:39;12.00;98.60
42199;DHT22;27868;45.184;5.786;2023-03-11T11:36:26;12.10;99.00
42199;DHT22;27868;45.184;5.786;2023-03-11T11:39:15;12.10;98.90
42199;DHT22;27868;45.184;5.786;2023-03-11T11:42:01;12.10;98.70
42199;DHT22;27868;45.184;5.786;2023-03-11T11:44:50;12.20;98.80
42199;DHT22;27868;45.184;5.786;2023-03-11T11:47:40;12.20;98.60
42199;DHT22;27868;45.184;5.786;2023-03-11T11:50:30;12.30;98.40
42199;DHT22;27868;45.184;5.786;2023-03-11T11:53:34;12.30;98.40
42199;DHT22;27868;45.184;5.786;2023-03-11T11:56:23;12.30;98.40
42199;DHT22;27868;45.184;5.786;2023-03-11T11:59:17;12.40;98.40
42199;DHT22;27868;45.184;5.786;2023-03-11T12:08:38;12.40;98.40
42199;DHT22;27868;45.184;5.786;2023-03-11T12:11:39;12.30;98.60
42199;DHT22;27868;45.184;5.786;2023-03-11T12:14:34;12.30;99.00
42199;DHT22;27868;45.184;5.786;2023-03-11T12:17:22;12.30;98.60
42199;DHT22;27868;45.184;5.786;2023-03-11T12:20:15;12.20;98.80
42199;DHT22;27868;45.184;5.786;2023-03-11T12:23:09;12.20;98.80
42199;DHT22;27868;45.184;5.786;2023-03-11T12:32:30;12.30;99.30
42199;DHT22;27868;45.184;5.786;2023-03-11T12:35:22;12.30;99.00
42199;DHT22;27868;45.184;5.786;2023-03-11T12:38:30;12.30;99.10
42199;DHT22;27868;45.184;5.786;2023-03-11T12:44:28;12.30;99.40
42199;DHT22;27868;45.184;5.786;2023-03-11T12:47:19;12.30;99.90
42199;DHT22;27868;45.184;5.786;2023-03-11T12:50:39;12.40;99.60
42199;DHT22;27868;45.184;5.786;2023-03-11T12:53:42;12.40;99.60
42199;DHT22;27868;45.184;5.786;2023-03-11T12:56:39;12.50;99.70
42199;DHT22;27868;45.184;5.786;2023-03-11T13:06:03;12.50;99.90
42199;DHT22;27868;45.184;5.786;2023-03-11T13:08:54;12.60;99.70
42199;DHT22;27868;45.184;5.786;2023-03-11T13:11:44;12.60;99.70
42199;DHT22;27868;45.184;5.786;2023-03-11T13:14:34;12.60;99.50
42199;DHT22;27868;45.184;5.786;2023-03-11T13:23:37;12.70;99.70
42199;DHT22;27868;45.184;5.786;2023-03-11T13:26:38;12.70;99.90
42199;DHT22;27868;45.184;5.786;2023-03-11T13:36:12;12.80;99.80
42199;DHT22;27868;45.184;5.786;2023-03-11T13:39:19;12.80;99.60
42199;DHT22;27868;45.184;5.786;2023-03-11T13:48:29;13.10;99.80
42199;DHT22;27868;45.184;5.786;2023-03-11T13:51:26;13.20;99.70
42199;DHT22;27868;45.184;5.786;2023-03-11T13:57:35;13.40;99.20
42199;DHT22;27868;45.184;5.786;2023-03-11T14:00:26;13.50;99.60
42199;DHT22;27868;45.184;5.786;2023-03-11T14:03:12;13.50;99.60
42199;DHT22;27868;45.184;5.786;2023-03-11T14:05:59;13.70;99.80
42199;DHT22;27868;45.184;5.786;2023-03-11T14:08:52;13.80;99.90
42199;DHT22;27868;45.184;5.786;2023-03-11T14:11:38;13.90;99.80
42199;DHT22;27868;45.184;5.786;2023-03-11T14:17:33;14.10;99.80
42199;DHT22;27868;45.184;5.786;2023-03-11T14:20:20;14.20;99.90
42199;DHT22;27868;45.184;5.786;2023-03-11T14:23:17;14.20;99.90
42199;DHT22;27868;45.184;5.786;2023-03-11T14:26:06;14.30;99.90
42199;DHT22;27868;45.184;5.786;2023-03-11T14:28:59;14.30;99.90
42199;DHT22;27868;45.184;5.786;2023-03-11T14:31:45;14.40;99.90
42199;DHT22;27868;45.184;5.786;2023-03-11T14:34:30;14.40;99.90
42199;DHT22;27868;45.184;5.786;2023-03-11T14:43:10;14.60;99.30
42199;DHT22;27868;45.184;5.786;2023-03-11T14:45:55;14.60;99.10
42199;DHT22;27868;45.184;5.786;2023-03-11T14:48:41;14.60;98.70
42199;DHT22;27868;45.184;5.786;2023-03-11T14:51:30;14.60;98.70
42199;DHT22;27868;45.184;5.786;2023-03-11T14:54:23;14.60;98.80
42199;DHT22;27868;45.184;5.786;2023-03-11T14:57:21;14.60;99.00
42199;DHT22;27868;45.184;5.786;2023-03-11T15:00:23;14.60;98.90
42199;DHT22;27868;45.184;5.786;2023-03-11T15:03:25;14.60;99.50
42199;DHT22;27868;45.184;5.786;2023-03-11T15:06:15;14.80;98.70
42199;DHT22;27868;45.184;5.786;2023-03-11T15:09:05;14.80;98.70
42199;DHT22;27868;45.184;5.786;2023-03-11T15:11:51;14.80;98.80
42199;DHT22;27868;45.184;5.786;2023-03-11T15:14:49;14.70;99.00
42199;DHT22;27868;45.184;5.786;2023-03-11T15:17:34;14.70;99.00
42199;DHT22;27868;45.184;5.786;2023-03-11T15:20:26;14.70;99.10
42199;DHT22;27868;45.184;5.786;2023-03-11T15:23:20;14.70;99.00
42199;DHT22;27868;45.184;5.786;2023-03-11T15:26:20;14.70;98.80
42199;DHT22;27868;45.184;5.786;2023-03-11T15:29:15;14.70;98.70
42199;DHT22;27868;45.184;5.786;2023-03-11T15:32:20;14.60;98.70
42199;DHT22;27868;45.184;5.786;2023-03-11T15:38:15;14.60;98.60
42199;DHT22;27868;45.184;5.786;2023-03-11T15:41:02;14.70;98.50
42199;DHT22;27868;45.184;5.786;2023-03-11T15:43:47;14.60;98.50
42199;DHT22;27868;45.184;5.786;2023-03-11T15:46:33;14.70;98.60
42199;DHT22;27868;45.184;5.786;2023-03-11T15:49:17;14.70;98.70
42199;DHT22;27868;45.184;5.786;2023-03-11T15:52:02;14.70;99.10
42199;DHT22;27868;45.184;5.786;2023-03-11T15:54:47;14.70;98.80
42199;DHT22;27868;45.184;5.786;2023-03-11T15:57:32;14.70;98.50
42199;DHT22;27868;45.184;5.786;2023-03-11T16:00:19;14.80;98.60
42199;DHT22;27868;45.184;5.786;2023-03-11T16:03:05;14.80;98.60
42199;DHT22;27868;45.184;5.786;2023-03-11T16:05:50;14.80;98.60
42199;DHT22;27868;45.184;5.786;2023-03-11T16:08:35;14.90;98.60
42199;DHT22;27868;45.184;5.786;2023-03-11T16:11:19;14.90;98.50
42199;DHT22;27868;45.184;5.786;2023-03-11T16:14:05;14.90;98.60
42199;DHT22;27868;45.184;5.786;2023-03-11T16:16:50;14.90;98.70
42199;DHT22;27868;45.184;5.786;2023-03-11T16:19:34;14.90;98.90
42199;DHT22;27868;45.184;5.786;2023-03-11T16:22:23;14.90;98.80
42199;DHT22;27868;45.184;5.786;2023-03-11T16:28:16;14.90;98.70
42199;DHT22;27868;45.184;5.786;2023-03-11T16:31:01;14.90;98.90
42199;DHT22;27868;45.184;5.786;2023-03-11T16:33:46;14.80;99.00
42199;DHT22;27868;45.184;5.786;2023-03-11T16:36:30;14.80;98.90
42199;DHT22;27868;45.184;5.786;2023-03-11T16:39:15;14.80;98.90
42199;DHT22;27868;45.184;5.786;2023-03-11T16:41:59;14.80;98.90
42199;DHT22;27868;45.184;5.786;2023-03-11T16:44:44;14.80;98.90
42199;DHT22;27868;45.184;5.786;2023-03-11T16:47:29;14.80;98.80
42199;DHT22;27868;45.184;5.786;2023-03-11T16:50:14;14.80;98.80
42199;DHT22;27868;45.184;5.786;2023-03-11T16:52:59;14.70;98.80
42199;DHT22;27868;45.184;5.786;2023-03-11T16:55:44;14.70;98.80
42199;DHT22;27868;45.184;5.786;2023-03-11T16:58:29;14.70;98.80
42199;DHT22;27868;45.184;5.786;2023-03-11T17:01:14;14.60;98.80
42199;DHT22;27868;45.184;5.786;2023-03-11T17:04:02;14.60;98.90
42199;DHT22;27868;45.184;5.786;2023-03-11T17:06:47;14.50;99.10
42199;DHT22;27868;45.184;5.786;2023-03-11T17:09:33;14.40;99.20
42199;DHT22;27868;45.184;5.786;2023-03-11T17:12:17;14.40;99.30
42199;DHT22;27868;45.184;5.786;2023-03-11T17:15:04;14.40;99.40
42199;DHT22;27868;45.184;5.786;2023-03-11T17:17:49;14.40;99.40
42199;DHT22;27868;45.184;5.786;2023-03-11T17:20:38;14.40;99.30
42199;DHT22;27868;45.184;5.786;2023-03-11T17:23:22;14.30;99.40
42199;DHT22;27868;45.184;5.786;2023-03-11T17:26:09;14.30;99.50
42199;DHT22;27868;45.184;5.786;2023-03-11T17:28:54;14.30;99.60
42199;DHT22;27868;45.184;5.786;2023-03-11T17:31:38;14.30;99.60
42199;DHT22;27868;45.184;5.786;2023-03-11T17:34:23;14.20;99.70
42199;DHT22;27868;45.184;5.786;2023-03-11T17:37:08;14.10;99.90
42199;DHT22;27868;45.184;5.786;2023-03-11T17:39:52;14.10;99.70
42199;DHT22;27868;45.184;5.786;2023-03-11T17:42:38;14.10;99.70
42199;DHT22;27868;45.184;5.786;2023-03-11T17:45:23;14.00;99.90
42199;DHT22;27868;45.184;5.786;2023-03-11T17:48:08;14.00;99.90
42199;DHT22;27868;45.184;5.786;2023-03-11T17:50:53;14.00;99.90
42199;DHT22;27868;45.184;5.786;2023-03-11T17:53:39;14.00;99.90
42199;DHT22;27868;45.184;5.786;2023-03-11T17:56:24;14.10;99.90
42199;DHT22;27868;45.184;5.786;2023-03-11T17:59:09;14.00;99.90
42199;DHT22;27868;45.184;5.786;2023-03-11T18:01:54;14.10;99.90
42199;DHT22;27868;45.184;5.786;2023-03-11T18:04:39;14.00;99.90
42199;DHT22;27868;45.184;5.786;2023-03-11T18:07:25;14.00;99.90
42199;DHT22;27868;45.184;5.786;2023-03-11T18:10:11;14.00;99.90
42199;DHT22;27868;45.184;5.786;2023-03-11T18:12:56;14.00;99.90
42199;DHT22;27868;45.184;5.786;2023-03-11T18:15:41;14.00;99.90
42199;DHT22;27868;45.184;5.786;2023-03-11T18:18:26;14.00;99.90
42199;DHT22;27868;45.184;5.786;2023-03-11T18:21:19;14.00;99.90
42199;DHT22;27868;45.184;5.786;2023-03-11T18:24:05;14.00;99.90
42199;DHT22;27868;45.184;5.786;2023-03-11T18:26:50;14.00;99.90
42199;DHT22;27868;45.184;5.786;2023-03-11T18:29:34;13.90;99.90
42199;DHT22;27868;45.184;5.786;2023-03-11T18:32:19;13.90;99.90
42199;DHT22;27868;45.184;5.786;2023-03-11T18:35:04;13.90;99.90
42199;DHT22;27868;45.184;5.786;2023-03-11T18:37:49;13.90;99.90
42199;DHT22;27868;45.184;5.786;2023-03-11T18:40:33;13.90;99.90
42199;DHT22;27868;45.184;5.786;2023-03-11T18:43:18;13.90;99.90
42199;DHT22;27868;45.184;5.786;2023-03-11T18:46:09;13.90;99.90
42199;DHT22;27868;45.184;5.786;2023-03-11T18:48:56;13.90;99.90
42199;DHT22;27868;45.184;5.786;2023-03-11T18:51:41;13.90;99.90
42199;DHT22;27868;45.184;5.786;2023-03-11T18:54:26;13.80;99.90
42199;DHT22;27868;45.184;5.786;2023-03-11T18:57:11;13.80;99.90
42199;DHT22;27868;45.184;5.786;2023-03-11T18:59:56;13.90;99.90
42199;DHT22;27868;45.184;5.786;2023-03-11T19:02:40;13.90;99.90
42199;DHT22;27868;45.184;5.786;2023-03-11T19:05:25;13.80;99.90
42199;DHT22;27868;45.184;5.786;2023-03-11T19:08:09;13.80;99.90
42199;DHT22;27868;45.184;5.786;2023-03-11T19:10:54;13.80;99.90